Aviation Digital Data Service (ADDS)

Output produced by METARs form (1825 UTC 16 August 2018)
found at http://www.aviationweather.gov/adds/metars/
 
TAF MMCS 161717Z 1618/1718 24015KT P6SM SCT030 SCT100 BKN250 
     FM162200 26015KT P6SM BKN030CB OVC120 
     TEMPO 1623/1703 5SM TSRA 
     BECMG 1704/1705 00000KT 
     FM171200 00000KT P6SM OVC030 
     FM171600 28010KT P6SM SCT030 BKN240
       
TAF MMAA 161635Z 1618/1724 26010KT P6SM SKC TX32/1620Z TN25/1712Z 
     FM162200 25010KT P6SM SCT020CB 
     FM170300 28010KT P6SM BKN020CB BKN120 
     TEMPO 1704/1708 5SM TSRA 
     FM171400 25010KT P6SM SCT100 SCT250
       
TAF MMAN 161717Z 1618/1718 12015KT P6SM SCT020 
     FM162200 15015KT P6SM SCT020CB BKN100 
     FM170500 00000KT P6SM SCT010 SCT060 
     FM171600 15010KT P6SM SCT030
       
TAF MMAS 161639Z 1618/1718 10012KT P6SM SCT025 SCT100 BKN220 
     TEMPO 1621/1701 6SM VC RA BKN025CB 
     FM170300 08006KT P6SM SCT020 BKN220 
     FM171600 10010KT P6SM SKC
       
TAF MMBT 161627Z 1618/1718 24010KT 5SM HZ SCT025 SCT120 BKN280 
     BECMG 1620/1621 BKN025 BKN120 BKN280 
     FM170300 30005KT 6SM HZ SCT025 BKN200 
     FM171600 20008KT 6SM HZ SCT025 BKN220
       
TAF MMCB 161627Z 1618/1718 16008KT P6SM SCT020 SCT100 BKN220 
     BECMG 1620/1621 6SM RA BKN020CB 
     TEMPO 1622/1702 3SM TSRA OVC020CB 
     FM170500 34005KT P6SM SCT020 SCT220 
     TEMPO 1711/1715 3SM BR HZ SCT005 
     FM171600 17006KT 6SM HZ SCT015 SCT220
       
TAF MMCE 161701Z 1618/1718 02012KT P6SM SCT030 
     BECMG 1622/1623 BKN030CB 
     TEMPO 1700/1704 4SM TSRA OVC020CB 
     FM170600 13012KT 6SM HZ BKN020 BKN220 
     FM171500 10010KT P6SM SCT020 BKN250
       
TAF MMCL 161658Z 1618/1718 24010KT P6SM BKN020 BKN250 
     FM162200 25010KT P6SM SCT020 BKN240 
     FM170500 25010KT P6SM VC TS SCT020CB BKN120 
     FM171200 00000KT 5SM HZ OVC015 
     FM171600 24010KT P6SM SCT020 SCT100
       
TAF MMCM 161701Z 1618/1718 12010KT P6SM BKN020 BKN200 
     TEMPO 1619/1623 4SM TSRA BKN020CB 
     FM170300 09010KT P6SM SCT015 BKN250 
     BECMG 1709/1710 BKN015 BKN200 
     TEMPO 1714/1718 3SM TSRA BKN010 OVC015CB
       
TAF MMCN 161648Z 1618/1718 23010KT P6SM BKN025 BKN250 
     FM170400 30008KT P6SM SCT025 BKN120 BKN200 
     TEMPO 1706/1710 5SM TSRA BKN025CB 
     FM171600 30006KT P6SM SCT100 BKN250
       
TAF MMCP 161701Z 1618/1718 35015KT P6SM BKN030 
     BECMG 1622/1623 6SM VC RA BKN030CB 
     TEMPO 1623/1703 3SM TSRA BKN010 OVC030CB 
     FM170500 13012KT P6SM BKN020 BKN250 
     FM171500 10010KT P6SM BKN020 BKN250
       
TAF MMCS 161717Z 1618/1718 24015KT P6SM SCT030 SCT100 BKN250 
     FM162200 26015KT P6SM BKN030CB OVC120 
     TEMPO 1623/1703 5SM TSRA 
     BECMG 1704/1705 00000KT 
     FM171200 00000KT P6SM OVC030 
     FM171600 28010KT P6SM SCT030 BKN240
       
TAF MMCU 161717Z 1618/1718 16015KT P6SM SCT030 SCT100 BKN230 
     FM162200 20015KT P6SM BKN025CB BKN120 
     TEMPO 1622/1702 5SM TSRA 
     FM170400 00000KT P6SM SCT020 SCT100 BKN250 
     FM171500 22010KT P6SM SCT100 BKN250
       
TAF MMCV 161709Z 1618/1718 15015KT P6SM SCT020 SCT250 
     FM170300 16008KT 6SM HZ SCT015 
     TEMPO 1710/1714 BKN010 
     FM171500 15012KT P6SM SKC
       
TAF MMCZ 161705Z 1618/1724 12015KT P6SM BKN015 
     FM170200 14010KT 6PSM SCT010 SCT080 
     FM171600 15010KT P6SM SCT020 BKN090
       
TAF MMDO 161648Z 1618/1718 07010KT P6SM SCT025 SCT250 
     BECMG 1619/1620 BKN025 BKN250 
     TEMPO 1700/1704 5SM TSRA BKN025CB 
     FM170500 33005KT P6SM SCT020 BKN200 
     FM171600 03006KT P6SM BKN200
       
TAF COR MMEP 161717Z 1618/1718 33008KT P6SM -RA BKN020 BKN090 BKN220 
     BECMG 1621/1622 BKN020CB 
     TEMPO 1623/1703 4SM TSRA 
     FM170500 00000KT 6SM HZ BKN015 BKN220 
     TEMPO 1711/1715 3SM BR HZ 
     FM171600 30006KT P6SM SCT020 BKN250
       
TAF MMGL 161646Z 1618/1724 16015KT P6SM BKN020 BKN100 TX26/1621Z TN16/1712Z 
     FM162100 14015KT P6SM BKN025CB OVC080 
     TEMPO 1622/1702 3SM TSRA 
     BECMG 1703/1704 10010KT 
     TEMPO 1703/1707 5SM TSRA 
     FM171000 00000KT 4SM HZ OVC030 
     FM171600 15010KT 5SM HZ SCT020 BKN100
       
TAF COR MMGM 161727Z 1618/1718 24010KT P6SM BKN030 BKN250 
     FM170400 29005KT P6SM SCT030 BKN100 BKN250 
     TEMPO 1707/1711 SCT030CB 
     FM171600 26006KT P6SM SCT120 BKN250
       
TAF MMHO 161658Z 1618/1718 20010KT P6SM SCT030 
     TEMPO 1621/1701 BKN030 
     FM170200 22010KT P6SM SCT020 SCT100 
     FM170600 25010KT P6SM SCT020CB BKN120 
     FM171600 23010KT P6SM SCT100 BKN250
       
TAF MMIA 161639Z 1618/1718 24010KT P6SM SCT020 BKN120 BKN220 
     BECMG 1621/1622 BKN020CB 
     TEMPO 1623/1703 4SM TSRA 
     FM170500 06006KT 6SM HZ BKN015 BKN120 OVC200 
     TEMPO 1711/1715 3SM BR HZ 
     FM171600 20006KT P6SM SCT020 BKN200
       
TAF MMIO 161717Z 1618/1718 03015KT P6SM SCT020 
     TEMPO 1619/1623 BKN020 
     FM170300 00000KT P6SM SCT015 
     FM171500 03010KT P6SM SKC
       
TAF AMD MMLM 161810Z 1618/1718 10012KT P6SM BKN020 
     PROB40 1623/1703 5SM TSRA BKN020CB 
     FM170400 30008KT P6SM SCT030 BKN100 BKN200 
     TEMPO 1706/1710 6SM VC RA BKN030CB 
     FM171600 26008KT P6SM SCT250
       
TAF MMLO 161639Z 1618/1718 10010KT P6SM BKN030 BKN220 
     BECMG 1620/1621 6SM RA BKN020CB 
     TEMPO 1622/1702 3SM TSRA OVC020CB 
     FM170400 07005KT P6SM SCT020 BKN220 
     TEMPO 1711/1715 3SM BR HZ BKN010 
     FM171600 11008KT P6SM SCT020
       
TAF MMLP 161658Z 1618/1718 04015KT P6SM SCT020 SCT100 
     TEMPO 1622/1702 BKN020 
     BECMG 1703/1704 00000KT 
     FM171200 00000KT P6SM SCT030 
     FM171600 06010KT P6SM SKC
       
TAF MMLT 161648Z 1618/1718 13010KT P6SM SCT020 SCT250 
     FM170400 20006KT P6SM BKN250 
     TEMPO 1710/1714 SCT030CB 
     FM171600 06010KT P6SM SCT030 BKN250
       
TAF MMMA 161709Z 1618/1718 15010G20KT P6SM BKN025 
     FM170300 15012KT P6SM SCT015 
     TEMPO 1710/1714 6SM HZ BKN015 
     FM171500 15015KT P6SM BKN020
       
TAF MMMD 161705Z 1618/1724 10015KT P6SM BKN020 TX35/1620Z TN24/1712Z 
     FM162100 12015KT 6PSM BKN015CB OVC080 
     TEMPO 1622/1702 3SM TSRA 
     FM170400 00000KT P6SM SCT020 BKN100 
     FM171200 00000KT 3SM HZ OVC010 
     FM171600 15010KT 5SM HZ SCT015 SCT080
       
TAF MMML 161658Z 1618/1718 16015KT P6SM SCT030 
     FM162100 17015KT P6SM SCT020CB BKN120 
     FM170000 20015KT P6SM BKN025CB BKN120 
     TEMPO 1703/1707 5SM TSRA 
     FM171400 00000KT P6SM SCT020 BKN080
       
TAF MMMM 161646Z 1618/1724 06010KT P6SM BKN020 
     FM162100 10015KT P6SM BKN015CB OVC080 
     TEMPO 1621/1701 4SM TSRA 
     BECMG 1702/1703 12010KT 
     TEMPO 1702/1706 5SM TSRA 
     FM171000 00000KT 3SM HZ OVC015 
     FM171600 14010KT 5SM HZ SCT020 SCT100
       
TAF MMMT 161701Z 1618/1718 36015KT P6SM BKN040 
     FM170300 33008KT P6SM BKN020 BKN250 
     TEMPO 1709/1713 5SM RA BKN020CB OVC040 
     FM171500 36012KT P6SM BKN030 BKN200
       
TAF MMMX 161635Z 1618/1724 12010KT 5SM HZ SCT020 TX25/1621Z TN14/1712Z 
     FM162100 13015KT P6SM BKN020CB BKN100 
     TEMPO 1622/1702 5SM TSRA 
     BECMG 1703/1704 
     TEMPO 1703/1706 4SM -RA 
     FM170900 00000KT 4SM HZ OVC020 
     FM171700 15010KT 5SM HZ SCT020 SCT100
       
TAF MMMY 161717Z 1618/1724 13015KT P6SM SKC TX37/1621Z TN24/1712Z 
     FM162100 16015KT P6SM BKN020CB BKN230 
     TEMPO 1622/1702 6SM TSRA 
     FM170500 00000KT 4SM HZ OVC015 
     FM171600 15010KT 5SM HZ SCT015 SCT080
       
TAF MMMZ 161658Z 1618/1724 22010KT P6SM SCT020 BKN230 TX33/1621Z TN25/1712Z 
     FM170000 24010KT P6SM SCT020CB BKN140 
     FM170600 02010KT P6SM BKN020CB BKN100 
     TEMPO 1706/1710 6SM TSRA 
     FM171500 00000KT P6SM SCT030 BKN250
       
TAF MMNL 161709Z 1618/1718 14012KT P6SM SCT025 BKN250 
     FM170300 15008KT P6SM SCT020 SCT250 
     TEMPO 1710/1714 4SM HZ BKN015 
     FM171500 15012KT P6SM SKC
       
TAF MMOX 161627Z 1618/1718 07010KT P6SM SCT020 SCT250 
     BECMG 1619/1620 BKN020 BKN250 
     PROB40 1622/1702 6SM VC RA BKN020CB 
     FM170400 03005KT P6SM SCT020 SCT100 BKN220 
     FM171600 07006KT P6SM SCT020 BKN080 BKN200
       
TAF MMPA 161709Z 1618/1718 10008KT 6SM HZ BKN020 BKN280 
     FM170300 00000KT 4SM HZ BKN015 
     TEMPO 1710/1714 2SM BR HZ OVC010 
     FM171500 07006KT 5SM HZ BKN015 BKN280
       
TAF MMPB 161627Z 1618/1718 16010KT P6SM BKN020 BKN220 
     BECMG 1621/1622 6SM RA BKN020CB 
     TEMPO 1622/1702 4SM TSRA 
     FM170500 00000KT P6SM SCT220 
     TEMPO 1711/1715 3SM BR HZ 
     FM171600 06006KT P6SM SCT220
       
TAF MMPG 161709Z 1618/1718 13010KT P6SM SCT040 
     FM170400 13005KT P6SM SCT250 
     FM171600 13010KT P6SM SCT030 SCT250
       
TAF MMPN 161639Z 1618/1718 18010KT P6SM SCT025 BKN080 OVC220 
     BECMG 1619/1620 6SM RA BKN020CB 
     TEMPO 1622/1702 3SM TSRA BKN010 OVC020CB 
     FM170500 00000KT 6SM HZ SCT020 BKN080 BKN200 
     FM171000 00000KT 3SM BR HZ SCT010 SCT080 
     FM171600 18006KT P6SM SCT030 SCT250
       
TAF MMPQ 161701Z 1618/1718 08015KT P6SM SCT020 SCT250 
     BECMG 1622/1623 6SM VC RA BKN020CB 
     TEMPO 1623/1703 3SM TSRA 
     FM170500 10006KT 6SM HZ BKN015 BKN220 
     TEMPO 1710/1714 3SM BR HZ 
     FM171500 09010KT 6SM HZ BKN020 BKN220
       
TAF MMPR 161646Z 1618/1724 22010KT P6SM SCT020 SCT100 BKN230 TX32/1621Z TN24/1712Z 
     FM162200 24015KT P6SM BKN020CB OVC120 
     TEMPO 1700/1704 6SM TSRA 
     BECMG 1705/1706 04010KT 
     FM171600 26010KT P6SM SCT020 BKN140
       
TAF MMPS 161627Z 1618/1718 23010KT P6SM SCT020 BKN250 
     TEMPO 1620/1624 BKN020 BKN250 
     FM170400 35005KT P6SM SCT020 BKN200 
     FM171600 24010KT P6SM SCT025 BKN220
       
TAF MMQT 161639Z 1618/1718 07010KT 6SM HZ BKN020 BKN080 BKN250 
     BECMG 1620/1621 5SM RA BKN020CB 
     TEMPO 1621/1701 3SM TSRA OVC020CB 
     FM170400 09005KT 5SM HZ SCT015 
     TEMPO 1711/1715 2SM BR HZ BKN010 
     FM171600 08006KT 5SM HZ SCT015 SCT080
       
TAF MMRX 161709Z 1618/1718 14010G20KT 6SM HZ SCT020 SCT250 
     FM170300 15010KT 6SM HZ SCT015 
     TEMPO 1710/1714 4SM HZ BKN015 
     FM171500 13015KT 6SM HZ SCT020
       
TAF MMSD 161648Z 1618/1718 13010KT P6SM SCT025 SCT120 
     FM170400 29006KT P6SM SCT120 BKN250 
     FM171700 13010KT P6SM SCT120 BKN220
       
TAF MMSL 161648Z 1618/1718 14010KT P6SM SCT030 SCT120 
     FM170400 29006KT P6SM SCT120 BKN250 
     FM171700 14010KT P6SM SCT120 BKN220
       
TAF MMSP 161646Z 1618/1724 12010KT P6SM BKN020 TX27/1621Z TN14/1712Z 
     BECMG 1701/1702 00000KT 
     FM171000 00000KT 3SM BR OVC010 
     FM171600 15010KT 4SM HZ SCT015
       
TAF MMTC 161717Z 1618/1718 10015KT P6SM SCT040 SCT230 
     TEMPO 1621/1701 BKN040 
     BECMG 1702/1703 00000KT 
     FM171600 12010KT P6SM SCT250
       
TAF MMTG 161705Z 1618/1718 03015KT P6SM SCT020CB BKN240 
     FM162100 06015KT 6PSM BKN015CB OVC080 
     TEMPO 1622/1702 4SM TSRA 
     BECMG 1703/1704 12010KT 
     FM171000 00000KT 3SM BR OVC010 
     FM171600 13010KT 4SM HZ SCT015 SCT080
       
TAF MMTJ 161658Z 1618/1724 26010KT 5SM HZ BKN025 TX28/1620Z TN19/1712Z 
     FM162200 32010KT 5SM HZ OVC020 
     FM170200 02010KT 3SM HZ OVC010 
     FM171700 29010KT 4SM HZ BKN015
       
TAF MMTM 161635Z 1618/1718 06010KT P6SM SCT020 
     TEMPO 1621/1701 BKN020 
     BECMG 1702/1703 00000KT 
     FM171600 13010KT P6SM SCT030
       
TAF MMTO 161635Z 1618/1724 08010KT P6SM SCT015CB SCT100 TX22/1620Z TN08/1712Z 
     FM162100 10010KT P6SM BKN015CB OVC080 
     TEMPO 1622/1702 3SM TSRA 
     BECMG 1703/1704 12010KT 
     TEMPO 1703/1707 4SM TSRA 
     FM171000 00000KT 3SM HZ OVC010 
     TEMPO 1712/1716 2SM BR
       
TAF MMTP 161705Z 1618/1724 26015KT P6SM SCT030 SCT240 
     FM162100 25010KT P6SM BKN020CB BKN100 
     TEMPO 1622/1702 4SM TSRA 
     FM170600 00000KT P6SM SCT020CB BKN100 BKN250 
     FM171500 22010KT P6SM SCT100 BKN260
       
TAF MMUN 161705Z 1618/1724 10015KT P6SM BKN015 BKN250 TX31/1618Z TN24/1712Z 
     FM170100 00000KT P6SM SCT020 
     FM171400 13010KT P6SM SCT020 SCT100 
     FM171800 14015KT P6SM BKN015 BKN080
       
TAF MMVA 161701Z 1618/1718 08010KT P6SM SCT015 SCT250 
     BECMG 1620/1621 BKN015 BKN250 
     TEMPO 1700/1704 5SM RA BKN015CB 
     FM170600 10005KT 6SM HZ BKN015 BKN220 
     TEMPO 1710/1714 3SM BR HZ 
     FM171500 07010KT P6SM SCT018 BKN250
       
TAF MMVR 161635Z 1618/1718 02010KT P6SM SCT015 SCT100 TX32/1621Z TN23/1712Z 
     TEMPO 1621/1701 BKN020 
     FM170600 00000KT P6SM SCT020CB BKN100 
     FM171600 12010KT P6SM SCT100 SCT250
       
TAF MMZC 161646Z 1618/1724 24015KT P6SM SCT030 BKN230 TX26/1621Z TN11/1712Z 
     FM162200 26015KT P6SM VC TS SCT030CB BKN140 
     FM170600 00000KT 4SM HZ SCT015 SCT240 
     FM171700 23010KT P6SM SCT030 SCT250
       
TAF MMZH 161627Z 1618/1718 24010KT P6SM SCT020 SCT090 BKN220 
     FM170300 04005KT P6SM SCT020 BKN100 BKN220 
     PROB40 1703/1707 4SM TSRA BKN015CB 
     FM171500 25006KT P6SM SCT020 SCT220
       
TAF MMZO 161646Z 1618/1718 24010KT P6SM SCT020 SCT240 
     FM162300 26010KT P6SM VC SH SCT020CB BKN120 BKN250 
     TEMPO 1700/1704 6SM TSRA BKN020CB 
     FM171000 00000KT P6SM SCT015 BKN240 
     FM171600 23010KT 5SM HZ SCT020 SCT100
       
TAF MMAA 161635Z 1618/1724 26010KT P6SM SKC TX32/1620Z TN25/1712Z 
     FM162200 25010KT P6SM SCT020CB 
     FM170300 28010KT P6SM BKN020CB BKN120 
     TEMPO 1704/1708 5SM TSRA 
     FM171400 25010KT P6SM SCT100 SCT250
       
TAF MMAN 161717Z 1618/1718 12015KT P6SM SCT020 
     FM162200 15015KT P6SM SCT020CB BKN100 
     FM170500 00000KT P6SM SCT010 SCT060 
     FM171600 15010KT P6SM SCT030
       
TAF MMAS 161639Z 1618/1718 10012KT P6SM SCT025 SCT100 BKN220 
     TEMPO 1621/1701 6SM VC RA BKN025CB 
     FM170300 08006KT P6SM SCT020 BKN220 
     FM171600 10010KT P6SM SKC
       
TAF MMBT 161627Z 1618/1718 24010KT 5SM HZ SCT025 SCT120 BKN280 
     BECMG 1620/1621 BKN025 BKN120 BKN280 
     FM170300 30005KT 6SM HZ SCT025 BKN200 
     FM171600 20008KT 6SM HZ SCT025 BKN220
       
TAF MMCB 161627Z 1618/1718 16008KT P6SM SCT020 SCT100 BKN220 
     BECMG 1620/1621 6SM RA BKN020CB 
     TEMPO 1622/1702 3SM TSRA OVC020CB 
     FM170500 34005KT P6SM SCT020 SCT220 
     TEMPO 1711/1715 3SM BR HZ SCT005 
     FM171600 17006KT 6SM HZ SCT015 SCT220
       
TAF MMCE 161701Z 1618/1718 02012KT P6SM SCT030 
     BECMG 1622/1623 BKN030CB 
     TEMPO 1700/1704 4SM TSRA OVC020CB 
     FM170600 13012KT 6SM HZ BKN020 BKN220 
     FM171500 10010KT P6SM SCT020 BKN250
       
TAF MMCL 161658Z 1618/1718 24010KT P6SM BKN020 BKN250 
     FM162200 25010KT P6SM SCT020 BKN240 
     FM170500 25010KT P6SM VC TS SCT020CB BKN120 
     FM171200 00000KT 5SM HZ OVC015 
     FM171600 24010KT P6SM SCT020 SCT100
       
TAF MMCM 161701Z 1618/1718 12010KT P6SM BKN020 BKN200 
     TEMPO 1619/1623 4SM TSRA BKN020CB 
     FM170300 09010KT P6SM SCT015 BKN250 
     BECMG 1709/1710 BKN015 BKN200 
     TEMPO 1714/1718 3SM TSRA BKN010 OVC015CB
       
TAF MMCN 161648Z 1618/1718 23010KT P6SM BKN025 BKN250 
     FM170400 30008KT P6SM SCT025 BKN120 BKN200 
     TEMPO 1706/1710 5SM TSRA BKN025CB 
     FM171600 30006KT P6SM SCT100 BKN250
       
TAF MMCP 161701Z 1618/1718 35015KT P6SM BKN030 
     BECMG 1622/1623 6SM VC RA BKN030CB 
     TEMPO 1623/1703 3SM TSRA BKN010 OVC030CB 
     FM170500 13012KT P6SM BKN020 BKN250 
     FM171500 10010KT P6SM BKN020 BKN250
       
TAF MMCS 161717Z 1618/1718 24015KT P6SM SCT030 SCT100 BKN250 
     FM162200 26015KT P6SM BKN030CB OVC120 
     TEMPO 1623/1703 5SM TSRA 
     BECMG 1704/1705 00000KT 
     FM171200 00000KT P6SM OVC030 
     FM171600 28010KT P6SM SCT030 BKN240
       
TAF MMCU 161717Z 1618/1718 16015KT P6SM SCT030 SCT100 BKN230 
     FM162200 20015KT P6SM BKN025CB BKN120 
     TEMPO 1622/1702 5SM TSRA 
     FM170400 00000KT P6SM SCT020 SCT100 BKN250 
     FM171500 22010KT P6SM SCT100 BKN250
       
TAF MMCV 161709Z 1618/1718 15015KT P6SM SCT020 SCT250 
     FM170300 16008KT 6SM HZ SCT015 
     TEMPO 1710/1714 BKN010 
     FM171500 15012KT P6SM SKC
       
TAF MMCZ 161705Z 1618/1724 12015KT P6SM BKN015 
     FM170200 14010KT 6PSM SCT010 SCT080 
     FM171600 15010KT P6SM SCT020 BKN090
       
TAF MMDO 161648Z 1618/1718 07010KT P6SM SCT025 SCT250 
     BECMG 1619/1620 BKN025 BKN250 
     TEMPO 1700/1704 5SM TSRA BKN025CB 
     FM170500 33005KT P6SM SCT020 BKN200 
     FM171600 03006KT P6SM BKN200
       
TAF COR MMEP 161717Z 1618/1718 33008KT P6SM -RA BKN020 BKN090 BKN220 
     BECMG 1621/1622 BKN020CB 
     TEMPO 1623/1703 4SM TSRA 
     FM170500 00000KT 6SM HZ BKN015 BKN220 
     TEMPO 1711/1715 3SM BR HZ 
     FM171600 30006KT P6SM SCT020 BKN250
       
TAF MMGL 161646Z 1618/1724 16015KT P6SM BKN020 BKN100 TX26/1621Z TN16/1712Z 
     FM162100 14015KT P6SM BKN025CB OVC080 
     TEMPO 1622/1702 3SM TSRA 
     BECMG 1703/1704 10010KT 
     TEMPO 1703/1707 5SM TSRA 
     FM171000 00000KT 4SM HZ OVC030 
     FM171600 15010KT 5SM HZ SCT020 BKN100
       
TAF COR MMGM 161727Z 1618/1718 24010KT P6SM BKN030 BKN250 
     FM170400 29005KT P6SM SCT030 BKN100 BKN250 
     TEMPO 1707/1711 SCT030CB 
     FM171600 26006KT P6SM SCT120 BKN250
       
TAF MMHO 161658Z 1618/1718 20010KT P6SM SCT030 
     TEMPO 1621/1701 BKN030 
     FM170200 22010KT P6SM SCT020 SCT100 
     FM170600 25010KT P6SM SCT020CB BKN120 
     FM171600 23010KT P6SM SCT100 BKN250
       
TAF MMIA 161639Z 1618/1718 24010KT P6SM SCT020 BKN120 BKN220 
     BECMG 1621/1622 BKN020CB 
     TEMPO 1623/1703 4SM TSRA 
     FM170500 06006KT 6SM HZ BKN015 BKN120 OVC200 
     TEMPO 1711/1715 3SM BR HZ 
     FM171600 20006KT P6SM SCT020 BKN200
       
TAF MMIO 161717Z 1618/1718 03015KT P6SM SCT020 
     TEMPO 1619/1623 BKN020 
     FM170300 00000KT P6SM SCT015 
     FM171500 03010KT P6SM SKC
       
TAF AMD MMLM 161810Z 1618/1718 10012KT P6SM BKN020 
     PROB40 1623/1703 5SM TSRA BKN020CB 
     FM170400 30008KT P6SM SCT030 BKN100 BKN200 
     TEMPO 1706/1710 6SM VC RA BKN030CB 
     FM171600 26008KT P6SM SCT250
       
TAF MMLO 161639Z 1618/1718 10010KT P6SM BKN030 BKN220 
     BECMG 1620/1621 6SM RA BKN020CB 
     TEMPO 1622/1702 3SM TSRA OVC020CB 
     FM170400 07005KT P6SM SCT020 BKN220 
     TEMPO 1711/1715 3SM BR HZ BKN010 
     FM171600 11008KT P6SM SCT020
       
TAF MMLP 161658Z 1618/1718 04015KT P6SM SCT020 SCT100 
     TEMPO 1622/1702 BKN020 
     BECMG 1703/1704 00000KT 
     FM171200 00000KT P6SM SCT030 
     FM171600 06010KT P6SM SKC
       
TAF MMLT 161648Z 1618/1718 13010KT P6SM SCT020 SCT250 
     FM170400 20006KT P6SM BKN250 
     TEMPO 1710/1714 SCT030CB 
     FM171600 06010KT P6SM SCT030 BKN250
       
TAF MMMA 161709Z 1618/1718 15010G20KT P6SM BKN025 
     FM170300 15012KT P6SM SCT015 
     TEMPO 1710/1714 6SM HZ BKN015 
     FM171500 15015KT P6SM BKN020
       
TAF MMMD 161705Z 1618/1724 10015KT P6SM BKN020 TX35/1620Z TN24/1712Z 
     FM162100 12015KT 6PSM BKN015CB OVC080 
     TEMPO 1622/1702 3SM TSRA 
     FM170400 00000KT P6SM SCT020 BKN100 
     FM171200 00000KT 3SM HZ OVC010 
     FM171600 15010KT 5SM HZ SCT015 SCT080
       
TAF MMML 161658Z 1618/1718 16015KT P6SM SCT030 
     FM162100 17015KT P6SM SCT020CB BKN120 
     FM170000 20015KT P6SM BKN025CB BKN120 
     TEMPO 1703/1707 5SM TSRA 
     FM171400 00000KT P6SM SCT020 BKN080
       
TAF MMMM 161646Z 1618/1724 06010KT P6SM BKN020 
     FM162100 10015KT P6SM BKN015CB OVC080 
     TEMPO 1621/1701 4SM TSRA 
     BECMG 1702/1703 12010KT 
     TEMPO 1702/1706 5SM TSRA 
     FM171000 00000KT 3SM HZ OVC015 
     FM171600 14010KT 5SM HZ SCT020 SCT100
       
TAF MMMT 161701Z 1618/1718 36015KT P6SM BKN040 
     FM170300 33008KT P6SM BKN020 BKN250 
     TEMPO 1709/1713 5SM RA BKN020CB OVC040 
     FM171500 36012KT P6SM BKN030 BKN200
       
TAF MMMX 161635Z 1618/1724 12010KT 5SM HZ SCT020 TX25/1621Z TN14/1712Z 
     FM162100 13015KT P6SM BKN020CB BKN100 
     TEMPO 1622/1702 5SM TSRA 
     BECMG 1703/1704 
     TEMPO 1703/1706 4SM -RA 
     FM170900 00000KT 4SM HZ OVC020 
     FM171700 15010KT 5SM HZ SCT020 SCT100
       
TAF MMMY 161717Z 1618/1724 13015KT P6SM SKC TX37/1621Z TN24/1712Z 
     FM162100 16015KT P6SM BKN020CB BKN230 
     TEMPO 1622/1702 6SM TSRA 
     FM170500 00000KT 4SM HZ OVC015 
     FM171600 15010KT 5SM HZ SCT015 SCT080
       
TAF MMMZ 161658Z 1618/1724 22010KT P6SM SCT020 BKN230 TX33/1621Z TN25/1712Z 
     FM170000 24010KT P6SM SCT020CB BKN140 
     FM170600 02010KT P6SM BKN020CB BKN100 
     TEMPO 1706/1710 6SM TSRA 
     FM171500 00000KT P6SM SCT030 BKN250
       
TAF MMNL 161709Z 1618/1718 14012KT P6SM SCT025 BKN250 
     FM170300 15008KT P6SM SCT020 SCT250 
     TEMPO 1710/1714 4SM HZ BKN015 
     FM171500 15012KT P6SM SKC
       
TAF MMOX 161627Z 1618/1718 07010KT P6SM SCT020 SCT250 
     BECMG 1619/1620 BKN020 BKN250 
     PROB40 1622/1702 6SM VC RA BKN020CB 
     FM170400 03005KT P6SM SCT020 SCT100 BKN220 
     FM171600 07006KT P6SM SCT020 BKN080 BKN200
       
TAF MMPA 161709Z 1618/1718 10008KT 6SM HZ BKN020 BKN280 
     FM170300 00000KT 4SM HZ BKN015 
     TEMPO 1710/1714 2SM BR HZ OVC010 
     FM171500 07006KT 5SM HZ BKN015 BKN280
       
TAF MMPB 161627Z 1618/1718 16010KT P6SM BKN020 BKN220 
     BECMG 1621/1622 6SM RA BKN020CB 
     TEMPO 1622/1702 4SM TSRA 
     FM170500 00000KT P6SM SCT220 
     TEMPO 1711/1715 3SM BR HZ 
     FM171600 06006KT P6SM SCT220
       
TAF MMPG 161709Z 1618/1718 13010KT P6SM SCT040 
     FM170400 13005KT P6SM SCT250 
     FM171600 13010KT P6SM SCT030 SCT250
       
TAF MMPN 161639Z 1618/1718 18010KT P6SM SCT025 BKN080 OVC220 
     BECMG 1619/1620 6SM RA BKN020CB 
     TEMPO 1622/1702 3SM TSRA BKN010 OVC020CB 
     FM170500 00000KT 6SM HZ SCT020 BKN080 BKN200 
     FM171000 00000KT 3SM BR HZ SCT010 SCT080 
     FM171600 18006KT P6SM SCT030 SCT250
       
TAF MMPQ 161701Z 1618/1718 08015KT P6SM SCT020 SCT250 
     BECMG 1622/1623 6SM VC RA BKN020CB 
     TEMPO 1623/1703 3SM TSRA 
     FM170500 10006KT 6SM HZ BKN015 BKN220 
     TEMPO 1710/1714 3SM BR HZ 
     FM171500 09010KT 6SM HZ BKN020 BKN220
       
TAF MMPR 161646Z 1618/1724 22010KT P6SM SCT020 SCT100 BKN230 TX32/1621Z TN24/1712Z 
     FM162200 24015KT P6SM BKN020CB OVC120 
     TEMPO 1700/1704 6SM TSRA 
     BECMG 1705/1706 04010KT 
     FM171600 26010KT P6SM SCT020 BKN140
       
TAF MMPS 161627Z 1618/1718 23010KT P6SM SCT020 BKN250 
     TEMPO 1620/1624 BKN020 BKN250 
     FM170400 35005KT P6SM SCT020 BKN200 
     FM171600 24010KT P6SM SCT025 BKN220
       
TAF MMQT 161639Z 1618/1718 07010KT 6SM HZ BKN020 BKN080 BKN250 
     BECMG 1620/1621 5SM RA BKN020CB 
     TEMPO 1621/1701 3SM TSRA OVC020CB 
     FM170400 09005KT 5SM HZ SCT015 
     TEMPO 1711/1715 2SM BR HZ BKN010 
     FM171600 08006KT 5SM HZ SCT015 SCT080
       
TAF MMRX 161709Z 1618/1718 14010G20KT 6SM HZ SCT020 SCT250 
     FM170300 15010KT 6SM HZ SCT015 
     TEMPO 1710/1714 4SM HZ BKN015 
     FM171500 13015KT 6SM HZ SCT020
       
TAF MMSD 161648Z 1618/1718 13010KT P6SM SCT025 SCT120 
     FM170400 29006KT P6SM SCT120 BKN250 
     FM171700 13010KT P6SM SCT120 BKN220
       
TAF MMSL 161648Z 1618/1718 14010KT P6SM SCT030 SCT120 
     FM170400 29006KT P6SM SCT120 BKN250 
     FM171700 14010KT P6SM SCT120 BKN220
       
TAF MMSP 161646Z 1618/1724 12010KT P6SM BKN020 TX27/1621Z TN14/1712Z 
     BECMG 1701/1702 00000KT 
     FM171000 00000KT 3SM BR OVC010 
     FM171600 15010KT 4SM HZ SCT015
       
TAF MMTC 161717Z 1618/1718 10015KT P6SM SCT040 SCT230 
     TEMPO 1621/1701 BKN040 
     BECMG 1702/1703 00000KT 
     FM171600 12010KT P6SM SCT250
       
TAF MMTG 161705Z 1618/1718 03015KT P6SM SCT020CB BKN240 
     FM162100 06015KT 6PSM BKN015CB OVC080 
     TEMPO 1622/1702 4SM TSRA 
     BECMG 1703/1704 12010KT 
     FM171000 00000KT 3SM BR OVC010 
     FM171600 13010KT 4SM HZ SCT015 SCT080
       
TAF MMTJ 161658Z 1618/1724 26010KT 5SM HZ BKN025 TX28/1620Z TN19/1712Z 
     FM162200 32010KT 5SM HZ OVC020 
     FM170200 02010KT 3SM HZ OVC010 
     FM171700 29010KT 4SM HZ BKN015
       
TAF MMTM 161635Z 1618/1718 06010KT P6SM SCT020 
     TEMPO 1621/1701 BKN020 
     BECMG 1702/1703 00000KT 
     FM171600 13010KT P6SM SCT030
       
TAF MMTO 161635Z 1618/1724 08010KT P6SM SCT015CB SCT100 TX22/1620Z TN08/1712Z 
     FM162100 10010KT P6SM BKN015CB OVC080 
     TEMPO 1622/1702 3SM TSRA 
     BECMG 1703/1704 12010KT 
     TEMPO 1703/1707 4SM TSRA 
     FM171000 00000KT 3SM HZ OVC010 
     TEMPO 1712/1716 2SM BR
       
TAF MMTP 161705Z 1618/1724 26015KT P6SM SCT030 SCT240 
     FM162100 25010KT P6SM BKN020CB BKN100 
     TEMPO 1622/1702 4SM TSRA 
     FM170600 00000KT P6SM SCT020CB BKN100 BKN250 
     FM171500 22010KT P6SM SCT100 BKN260
       
TAF MMUN 161705Z 1618/1724 10015KT P6SM BKN015 BKN250 TX31/1618Z TN24/1712Z 
     FM170100 00000KT P6SM SCT020 
     FM171400 13010KT P6SM SCT020 SCT100 
     FM171800 14015KT P6SM BKN015 BKN080
       
TAF MMVA 161701Z 1618/1718 08010KT P6SM SCT015 SCT250 
     BECMG 1620/1621 BKN015 BKN250 
     TEMPO 1700/1704 5SM RA BKN015CB 
     FM170600 10005KT 6SM HZ BKN015 BKN220 
     TEMPO 1710/1714 3SM BR HZ 
     FM171500 07010KT P6SM SCT018 BKN250
       
TAF MMVR 161635Z 1618/1718 02010KT P6SM SCT015 SCT100 TX32/1621Z TN23/1712Z 
     TEMPO 1621/1701 BKN020 
     FM170600 00000KT P6SM SCT020CB BKN100 
     FM171600 12010KT P6SM SCT100 SCT250
       
TAF MMZC 161646Z 1618/1724 24015KT P6SM SCT030 BKN230 TX26/1621Z TN11/1712Z 
     FM162200 26015KT P6SM VC TS SCT030CB BKN140 
     FM170600 00000KT 4SM HZ SCT015 SCT240 
     FM171700 23010KT P6SM SCT030 SCT250
       
TAF MMZH 161627Z 1618/1718 24010KT P6SM SCT020 SCT090 BKN220 
     FM170300 04005KT P6SM SCT020 BKN100 BKN220 
     PROB40 1703/1707 4SM TSRA BKN015CB 
     FM171500 25006KT P6SM SCT020 SCT220
       
TAF MMZO 161646Z 1618/1718 24010KT P6SM SCT020 SCT240 
     FM162300 26010KT P6SM VC SH SCT020CB BKN120 BKN250 
     TEMPO 1700/1704 6SM TSRA BKN020CB 
     FM171000 00000KT P6SM SCT015 BKN240 
     FM171600 23010KT 5SM HZ SCT020 SCT100
       
TAF MMBT 161627Z 1618/1718 24010KT 5SM HZ SCT025 SCT120 BKN280 
     BECMG 1620/1621 BKN025 BKN120 BKN280 
     FM170300 30005KT 6SM HZ SCT025 BKN200 
     FM171600 20008KT 6SM HZ SCT025 BKN220
       
TAF MMVA 161701Z 1618/1718 08010KT P6SM SCT015 SCT250 
     BECMG 1620/1621 BKN015 BKN250 
     TEMPO 1700/1704 5SM RA BKN015CB 
     FM170600 10005KT 6SM HZ BKN015 BKN220 
     TEMPO 1710/1714 3SM BR HZ 
     FM171500 07010KT P6SM SCT018 BKN250
       
TAF MMUN 161705Z 1618/1724 10015KT P6SM BKN015 BKN250 TX31/1618Z TN24/1712Z 
     FM170100 00000KT P6SM SCT020 
     FM171400 13010KT P6SM SCT020 SCT100 
     FM171800 14015KT P6SM BKN015 BKN080
       
TAF MMCM 161701Z 1618/1718 12010KT P6SM BKN020 BKN200 
     TEMPO 1619/1623 4SM TSRA BKN020CB 
     FM170300 09010KT P6SM SCT015 BKN250 
     BECMG 1709/1710 BKN015 BKN200 
     TEMPO 1714/1718 3SM TSRA BKN010 OVC015CB
       
TAF MMCE 161701Z 1618/1718 02012KT P6SM SCT030 
     BECMG 1622/1623 BKN030CB 
     TEMPO 1700/1704 4SM TSRA OVC020CB 
     FM170600 13012KT 6SM HZ BKN020 BKN220 
     FM171500 10010KT P6SM SCT020 BKN250
       
TAF MMCN 161648Z 1618/1718 23010KT P6SM BKN025 BKN250 
     FM170400 30008KT P6SM SCT025 BKN120 BKN200 
     TEMPO 1706/1710 5SM TSRA BKN025CB 
     FM171600 30006KT P6SM SCT100 BKN250
       
TAF MMCV 161709Z 1618/1718 15015KT P6SM SCT020 SCT250 
     FM170300 16008KT 6SM HZ SCT015 
     TEMPO 1710/1714 BKN010 
     FM171500 15012KT P6SM SKC
       
TAF MMCZ 161705Z 1618/1724 12015KT P6SM BKN015 
     FM170200 14010KT 6PSM SCT010 SCT080 
     FM171600 15010KT P6SM SCT020 BKN090
       
TAF MMCB 161627Z 1618/1718 16008KT P6SM SCT020 SCT100 BKN220 
     BECMG 1620/1621 6SM RA BKN020CB 
     TEMPO 1622/1702 3SM TSRA OVC020CB 
     FM170500 34005KT P6SM SCT020 SCT220 
     TEMPO 1711/1715 3SM BR HZ SCT005 
     FM171600 17006KT 6SM HZ SCT015 SCT220
       
TAF MMCL 161658Z 1618/1718 24010KT P6SM BKN020 BKN250 
     FM162200 25010KT P6SM SCT020 BKN240 
     FM170500 25010KT P6SM VC TS SCT020CB BKN120 
     FM171200 00000KT 5SM HZ OVC015 
     FM171600 24010KT P6SM SCT020 SCT100
       
TAF MMLO 161639Z 1618/1718 10010KT P6SM BKN030 BKN220 
     BECMG 1620/1621 6SM RA BKN020CB 
     TEMPO 1622/1702 3SM TSRA OVC020CB 
     FM170400 07005KT P6SM SCT020 BKN220 
     TEMPO 1711/1715 3SM BR HZ BKN010 
     FM171600 11008KT P6SM SCT020
       
TAF MMAN 161717Z 1618/1718 12015KT P6SM SCT020 
     FM162200 15015KT P6SM SCT020CB BKN100 
     FM170500 00000KT P6SM SCT010 SCT060 
     FM171600 15010KT P6SM SCT030
       
TAF MMGL 161646Z 1618/1724 16015KT P6SM BKN020 BKN100 TX26/1621Z TN16/1712Z 
     FM162100 14015KT P6SM BKN025CB OVC080 
     TEMPO 1622/1702 3SM TSRA 
     BECMG 1703/1704 10010KT 
     TEMPO 1703/1707 5SM TSRA 
     FM171000 00000KT 4SM HZ OVC030 
     FM171600 15010KT 5SM HZ SCT020 BKN100
       
TAF MMDO 161648Z 1618/1718 07010KT P6SM SCT025 SCT250 
     BECMG 1619/1620 BKN025 BKN250 
     TEMPO 1700/1704 5SM TSRA BKN025CB 
     FM170500 33005KT P6SM SCT020 BKN200 
     FM171600 03006KT P6SM BKN200
       
TAF MMTG 161705Z 1618/1718 03015KT P6SM SCT020CB BKN240 
     FM162100 06015KT 6PSM BKN015CB OVC080 
     TEMPO 1622/1702 4SM TSRA 
     BECMG 1703/1704 12010KT 
     FM171000 00000KT 3SM BR OVC010 
     FM171600 13010KT 4SM HZ SCT015 SCT080
       
TAF MMTJ 161658Z 1618/1724 26010KT 5SM HZ BKN025 TX28/1620Z TN19/1712Z 
     FM162200 32010KT 5SM HZ OVC020 
     FM170200 02010KT 3SM HZ OVC010 
     FM171700 29010KT 4SM HZ BKN015
       
TAF MMMM 161646Z 1618/1724 06010KT P6SM BKN020 
     FM162100 10015KT P6SM BKN015CB OVC080 
     TEMPO 1621/1701 4SM TSRA 
     BECMG 1702/1703 12010KT 
     TEMPO 1702/1706 5SM TSRA 
     FM171000 00000KT 3SM HZ OVC015 
     FM171600 14010KT 5SM HZ SCT020 SCT100
       
TAF MMTM 161635Z 1618/1718 06010KT P6SM SCT020 
     TEMPO 1621/1701 BKN020 
     BECMG 1702/1703 00000KT 
     FM171600 13010KT P6SM SCT030
       
TAF MMVR 161635Z 1618/1718 02010KT P6SM SCT015 SCT100 TX32/1621Z TN23/1712Z 
     TEMPO 1621/1701 BKN020 
     FM170600 00000KT P6SM SCT020CB BKN100 
     FM171600 12010KT P6SM SCT100 SCT250
       
TAF MMHO 161658Z 1618/1718 20010KT P6SM SCT030 
     TEMPO 1621/1701 BKN030 
     FM170200 22010KT P6SM SCT020 SCT100 
     FM170600 25010KT P6SM SCT020CB BKN120 
     FM171600 23010KT P6SM SCT100 BKN250
       
TAF COR MMGM 161727Z 1618/1718 24010KT P6SM BKN030 BKN250 
     FM170400 29005KT P6SM SCT030 BKN100 BKN250 
     TEMPO 1707/1711 SCT030CB 
     FM171600 26006KT P6SM SCT120 BKN250
       
TAF MMAA 161635Z 1618/1724 26010KT P6SM SKC TX32/1620Z TN25/1712Z 
     FM162200 25010KT P6SM SCT020CB 
     FM170300 28010KT P6SM BKN020CB BKN120 
     TEMPO 1704/1708 5SM TSRA 
     FM171400 25010KT P6SM SCT100 SCT250
       
TAF MMZC 161646Z 1618/1724 24015KT P6SM SCT030 BKN230 TX26/1621Z TN11/1712Z 
     FM162200 26015KT P6SM VC TS SCT030CB BKN140 
     FM170600 00000KT 4SM HZ SCT015 SCT240 
     FM171700 23010KT P6SM SCT030 SCT250
       
TAF MMRX 161709Z 1618/1718 14010G20KT 6SM HZ SCT020 SCT250 
     FM170300 15010KT 6SM HZ SCT015 
     TEMPO 1710/1714 4SM HZ BKN015 
     FM171500 13015KT 6SM HZ SCT020
       
TAF MMLP 161658Z 1618/1718 04015KT P6SM SCT020 SCT100 
     TEMPO 1622/1702 BKN020 
     BECMG 1703/1704 00000KT 
     FM171200 00000KT P6SM SCT030 
     FM171600 06010KT P6SM SKC
       
TAF MMMY 161717Z 1618/1724 13015KT P6SM SKC TX37/1621Z TN24/1712Z 
     FM162100 16015KT P6SM BKN020CB BKN230 
     TEMPO 1622/1702 6SM TSRA 
     FM170500 00000KT 4SM HZ OVC015 
     FM171600 15010KT 5SM HZ SCT015 SCT080
       
TAF MMCU 161717Z 1618/1718 16015KT P6SM SCT030 SCT100 BKN230 
     FM162200 20015KT P6SM BKN025CB BKN120 
     TEMPO 1622/1702 5SM TSRA 
     FM170400 00000KT P6SM SCT020 SCT100 BKN250 
     FM171500 22010KT P6SM SCT100 BKN250
       
TAF MMMZ 161658Z 1618/1724 22010KT P6SM SCT020 BKN230 TX33/1621Z TN25/1712Z 
     FM170000 24010KT P6SM SCT020CB BKN140 
     FM170600 02010KT P6SM BKN020CB BKN100 
     TEMPO 1706/1710 6SM TSRA 
     FM171500 00000KT P6SM SCT030 BKN250
       
TAF MMML 161658Z 1618/1718 16015KT P6SM SCT030 
     FM162100 17015KT P6SM SCT020CB BKN120 
     FM170000 20015KT P6SM BKN025CB BKN120 
     TEMPO 1703/1707 5SM TSRA 
     FM171400 00000KT P6SM SCT020 BKN080
       
TAF MMMA 161709Z 1618/1718 15010G20KT P6SM BKN025 
     FM170300 15012KT P6SM SCT015 
     TEMPO 1710/1714 6SM HZ BKN015 
     FM171500 15015KT P6SM BKN020
       
TAF MMPB 161627Z 1618/1718 16010KT P6SM BKN020 BKN220 
     BECMG 1621/1622 6SM RA BKN020CB 
     TEMPO 1622/1702 4SM TSRA 
     FM170500 00000KT P6SM SCT220 
     TEMPO 1711/1715 3SM BR HZ 
     FM171600 06006KT P6SM SCT220
       
TAF MMCP 161701Z 1618/1718 35015KT P6SM BKN030 
     BECMG 1622/1623 6SM VC RA BKN030CB 
     TEMPO 1623/1703 3SM TSRA BKN010 OVC030CB 
     FM170500 13012KT P6SM BKN020 BKN250 
     FM171500 10010KT P6SM BKN020 BKN250
       
TAF MMQT 161639Z 1618/1718 07010KT 6SM HZ BKN020 BKN080 BKN250 
     BECMG 1620/1621 5SM RA BKN020CB 
     TEMPO 1621/1701 3SM TSRA OVC020CB 
     FM170400 09005KT 5SM HZ SCT015 
     TEMPO 1711/1715 2SM BR HZ BKN010 
     FM171600 08006KT 5SM HZ SCT015 SCT080
       
TAF MMZH 161627Z 1618/1718 24010KT P6SM SCT020 SCT090 BKN220 
     FM170300 04005KT P6SM SCT020 BKN100 BKN220 
     PROB40 1703/1707 4SM TSRA BKN015CB 
     FM171500 25006KT P6SM SCT020 SCT220
       
TAF MMAS 161639Z 1618/1718 10012KT P6SM SCT025 SCT100 BKN220 
     TEMPO 1621/1701 6SM VC RA BKN025CB 
     FM170300 08006KT P6SM SCT020 BKN220 
     FM171600 10010KT P6SM SKC
       
TAF MMTO 161635Z 1618/1724 08010KT P6SM SCT015CB SCT100 TX22/1620Z TN08/1712Z 
     FM162100 10010KT P6SM BKN015CB OVC080 
     TEMPO 1622/1702 3SM TSRA 
     BECMG 1703/1704 12010KT 
     TEMPO 1703/1707 4SM TSRA 
     FM171000 00000KT 3SM HZ OVC010 
     TEMPO 1712/1716 2SM BR
       
TAF MMMX 161635Z 1618/1724 12010KT 5SM HZ SCT020 TX25/1621Z TN14/1712Z 
     FM162100 13015KT P6SM BKN020CB BKN100 
     TEMPO 1622/1702 5SM TSRA 
     BECMG 1703/1704 
     TEMPO 1703/1706 4SM -RA 
     FM170900 00000KT 4SM HZ OVC020 
     FM171700 15010KT 5SM HZ SCT020 SCT100
       
TAF MMPR 161646Z 1618/1724 22010KT P6SM SCT020 SCT100 BKN230 TX32/1621Z TN24/1712Z 
     FM162200 24015KT P6SM BKN020CB OVC120 
     TEMPO 1700/1704 6SM TSRA 
     BECMG 1705/1706 04010KT 
     FM171600 26010KT P6SM SCT020 BKN140
       
TAF MMMD 161705Z 1618/1724 10015KT P6SM BKN020 TX35/1620Z TN24/1712Z 
     FM162100 12015KT 6PSM BKN015CB OVC080 
     TEMPO 1622/1702 3SM TSRA 
     FM170400 00000KT P6SM SCT020 BKN100 
     FM171200 00000KT 3SM HZ OVC010 
     FM171600 15010KT 5SM HZ SCT015 SCT080
       
TAF MMPN 161639Z 1618/1718 18010KT P6SM SCT025 BKN080 OVC220 
     BECMG 1619/1620 6SM RA BKN020CB 
     TEMPO 1622/1702 3SM TSRA BKN010 OVC020CB 
     FM170500 00000KT 6SM HZ SCT020 BKN080 BKN200 
     FM171000 00000KT 3SM BR HZ SCT010 SCT080 
     FM171600 18006KT P6SM SCT030 SCT250
       
TAF MMLT 161648Z 1618/1718 13010KT P6SM SCT020 SCT250 
     FM170400 20006KT P6SM BKN250 
     TEMPO 1710/1714 SCT030CB 
     FM171600 06010KT P6SM SCT030 BKN250
       
TAF MMSD 161648Z 1618/1718 13010KT P6SM SCT025 SCT120 
     FM170400 29006KT P6SM SCT120 BKN250 
     FM171700 13010KT P6SM SCT120 BKN220
       
TAF MMMT 161701Z 1618/1718 36015KT P6SM BKN040 
     FM170300 33008KT P6SM BKN020 BKN250 
     TEMPO 1709/1713 5SM RA BKN020CB OVC040 
     FM171500 36012KT P6SM BKN030 BKN200
       
TAF MMPG 161709Z 1618/1718 13010KT P6SM SCT040 
     FM170400 13005KT P6SM SCT250 
     FM171600 13010KT P6SM SCT030 SCT250
       
TAF MMIO 161717Z 1618/1718 03015KT P6SM SCT020 
     TEMPO 1619/1623 BKN020 
     FM170300 00000KT P6SM SCT015 
     FM171500 03010KT P6SM SKC
       
TAF MMZO 161646Z 1618/1718 24010KT P6SM SCT020 SCT240 
     FM162300 26010KT P6SM VC SH SCT020CB BKN120 BKN250 
     TEMPO 1700/1704 6SM TSRA BKN020CB 
     FM171000 00000KT P6SM SCT015 BKN240 
     FM171600 23010KT 5SM HZ SCT020 SCT100
       
TAF MMSP 161646Z 1618/1724 12010KT P6SM BKN020 TX27/1621Z TN14/1712Z 
     BECMG 1701/1702 00000KT 
     FM171000 00000KT 3SM BR OVC010 
     FM171600 15010KT 4SM HZ SCT015
       
TAF MMPS 161627Z 1618/1718 23010KT P6SM SCT020 BKN250 
     TEMPO 1620/1624 BKN020 BKN250 
     FM170400 35005KT P6SM SCT020 BKN200 
     FM171600 24010KT P6SM SCT025 BKN220
       
TAF MMNL 161709Z 1618/1718 14012KT P6SM SCT025 BKN250 
     FM170300 15008KT P6SM SCT020 SCT250 
     TEMPO 1710/1714 4SM HZ BKN015 
     FM171500 15012KT P6SM SKC
       
TAF MMTP 161705Z 1618/1724 26015KT P6SM SCT030 SCT240 
     FM162100 25010KT P6SM BKN020CB BKN100 
     TEMPO 1622/1702 4SM TSRA 
     FM170600 00000KT P6SM SCT020CB BKN100 BKN250 
     FM171500 22010KT P6SM SCT100 BKN260
       
TAF COR MMEP 161717Z 1618/1718 33008KT P6SM -RA BKN020 BKN090 BKN220 
     BECMG 1621/1622 BKN020CB 
     TEMPO 1623/1703 4SM TSRA 
     FM170500 00000KT 6SM HZ BKN015 BKN220 
     TEMPO 1711/1715 3SM BR HZ 
     FM171600 30006KT P6SM SCT020 BKN250
       
TAF MMTC 161717Z 1618/1718 10015KT P6SM SCT040 SCT230 
     TEMPO 1621/1701 BKN040 
     BECMG 1702/1703 00000KT 
     FM171600 12010KT P6SM SCT250
       
TAF AMD MMLM 161810Z 1618/1718 10012KT P6SM BKN020 
     PROB40 1623/1703 5SM TSRA BKN020CB 
     FM170400 30008KT P6SM SCT030 BKN100 BKN200 
     TEMPO 1706/1710 6SM VC RA BKN030CB 
     FM171600 26008KT P6SM SCT250
       
TAF MMOX 161627Z 1618/1718 07010KT P6SM SCT020 SCT250 
     BECMG 1619/1620 BKN020 BKN250 
     PROB40 1622/1702 6SM VC RA BKN020CB 
     FM170400 03005KT P6SM SCT020 SCT100 BKN220 
     FM171600 07006KT P6SM SCT020 BKN080 BKN200